Time;durP1;ratioP1;P1;durP2;ratioP2;P2;SDS_P1;SDS_P2;PMS_P1;PMS_P2;Temp;Humidity;BMP_temperature;BMP_pressure;BME280_temperature;BME280_humidity;BME280_pressure;Samples;Min_cycle;Max_cycle;Signal;HPM_P1;HPM_P2
2023/03/24 00:00:11;;;;;;;;;;;;;;;11.36;100.00;99806.34;5022016;28;19913;-64
2023/03/24 00:02:40;;;;;;;;;;;;;;;11.36;99.92;99801.03;5026114;28;20560;-65
2023/03/24 00:05:06;;;;;;;;;;;;;;;11.34;100.00;99797.75;5022608;28;19913;-65
2023/03/24 00:07:32;;;;;;;;;;;;;;;11.33;100.00;99780.16;5018143;28;19945;-65
2023/03/24 00:09:58;;;;;;;;;;;;;;;11.34;100.00;99773.00;5018229;28;19968;-65
2023/03/24 00:12:24;;;;;;;;;;;;;;;11.36;100.00;99787.72;5021343;28;19960;-64
2023/03/24 00:14:53;;;;;;;;;;;;;;;11.38;100.00;99779.56;5022623;28;19917;-65
2023/03/24 00:17:18;;;;;;;;;;;;;;;11.39;100.00;99787.31;5022711;28;19923;-64
2023/03/24 00:19:44;;;;;;;;;;;;;;;11.43;100.00;99774.44;5022321;28;20012;-64
2023/03/24 00:22:13;;;;;;;;;;;;;;;11.44;100.00;99774.25;5022321;28;19998;-64
2023/03/24 00:24:39;;;;;;;;;;;;;;;11.46;100.00;99774.84;5021628;28;20031;-65
2023/03/24 00:27:04;;;;;;;;;;;;;;;11.48;100.00;99764.84;5023704;28;19978;-64
2023/03/24 00:29:30;;;;;;;;;;;;;;;11.49;100.00;99765.66;5020703;28;20458;-63
2023/03/24 00:31:55;;;;;;;;;;;;;;;11.53;100.00;99774.03;5020505;28;20421;-64
2023/03/24 00:34:21;;;;;;;;;;;;;;;11.57;99.90;99775.28;5019246;28;19917;-64
2023/03/24 00:36:47;;;;;;;;;;;;;;;11.62;99.67;99773.66;5019924;28;19951;-64
2023/03/24 00:39:14;;;;;;;;;;;;;;;11.65;99.27;99762.59;5021265;28;19925;-64
2023/03/24 00:41:39;;;;;;;;;;;;;;;11.70;99.20;99754.00;5020489;28;20016;-64
2023/03/24 00:44:08;;;;;;;;;;;;;;;11.78;98.50;99745.84;5008673;28;19992;-64
2023/03/24 00:46:34;;;;;;;;;;;;;;;11.79;98.29;99745.66;5021255;28;19992;-64
2023/03/24 00:49:06;;;;;;;;;;;;;;;11.84;98.25;99750.34;5022182;28;20016;-65
2023/03/24 00:51:34;;;;;;;;;;;;;;;11.89;97.86;99747.09;5021121;28;20004;-63
2023/03/24 00:54:00;;;;;;;;;;;;;;;11.93;97.68;99733.16;5018912;28;19925;-64
2023/03/24 00:56:26;;;;;;;;;;;;;;;11.95;97.14;99728.47;5016291;28;20322;-64
2023/03/24 00:58:53;;;;;;;;;;;;;;;11.99;97.06;99724.34;5026135;28;19983;-64
2023/03/24 01:01:20;;;;;;;;;;;;;;;12.08;96.26;99719.63;5027409;28;20337;-64
2023/03/24 01:03:46;;;;;;;;;;;;;;;12.18;95.93;99713.91;5018647;28;19928;-64
2023/03/24 01:06:12;;;;;;;;;;;;;;;12.19;95.72;99719.00;5022793;28;19913;-65
2023/03/24 01:08:37;;;;;;;;;;;;;;;12.22;95.34;99723.91;5023307;28;19924;-64
2023/03/24 01:11:04;;;;;;;;;;;;;;;12.19;95.48;99713.69;5021204;28;20390;-64
2023/03/24 01:13:29;;;;;;;;;;;;;;;12.18;95.51;99717.38;5020378;28;19953;-64
2023/03/24 01:15:55;;;;;;;;;;;;;;;12.14;95.71;99712.66;5027457;28;19978;-64
2023/03/24 01:18:22;;;;;;;;;;;;;;;12.09;96.20;99703.44;5029416;28;19924;-64
2023/03/24 01:20:50;;;;;;;;;;;;;;;11.98;96.61;99705.94;5027661;28;19932;-65
2023/03/24 01:23:18;;;;;;;;;;;;;;;11.84;97.50;99705.13;5025801;28;19921;-65
2023/03/24 01:25:46;;;;;;;;;;;;;;;11.73;98.63;99693.25;5023561;28;20038;-65
2023/03/24 01:28:12;;;;;;;;;;;;;;;11.70;99.43;99706.97;5025693;28;19917;-65
2023/03/24 01:30:37;;;;;;;;;;;;;;;11.66;100.00;99692.44;5022932;28;20875;-65
2023/03/24 01:33:03;;;;;;;;;;;;;;;11.62;100.00;99698.38;5024011;28;19933;-65
2023/03/24 01:35:28;;;;;;;;;;;;;;;11.59;100.00;99701.44;5027343;28;19924;-65
2023/03/24 01:37:53;;;;;;;;;;;;;;;11.55;100.00;99685.06;5028110;28;20362;-65
2023/03/24 01:40:20;;;;;;;;;;;;;;;11.51;100.00;99680.38;5024646;28;20359;-65
2023/03/24 01:42:45;;;;;;;;;;;;;;;11.49;100.00;99676.06;5028042;28;20413;-65
2023/03/24 01:45:29;;;;;;;;;;;;;;;11.53;100.00;99678.31;5024114;28;19960;-65
2023/03/24 01:47:55;;;;;;;;;;;;;;;11.58;100.00;99673.22;5028888;28;19945;-65
2023/03/24 01:50:20;;;;;;;;;;;;;;;11.61;100.00;99678.94;5029866;28;19964;-65
2023/03/24 01:52:46;;;;;;;;;;;;;;;11.64;100.00;99680.38;5028443;28;20276;-65
2023/03/24 01:55:14;;;;;;;;;;;;;;;11.66;100.00;99670.34;5024867;28;19924;-64
2023/03/24 01:57:52;;;;;;;;;;;;;;;11.62;100.00;99672.59;5025008;28;19987;-65
2023/03/24 02:00:19;;;;;;;;;;;;;;;11.61;100.00;99678.13;5028377;28;19917;-64
2023/03/24 02:02:48;;;;;;;;;;;;;;;11.61;100.00;99664.84;5023566;28;19921;-65
2023/03/24 02:05:14;;;;;;;;;;;;;;;11.62;100.00;99659.31;5030628;28;19917;-65
2023/03/24 02:07:45;;;;;;;;;;;;;;;11.64;100.00;99659.91;5028002;28;19996;-65
2023/03/24 02:10:12;;;;;;;;;;;;;;;11.63;100.00;99666.25;5024468;28;19913;-65
2023/03/24 02:12:37;;;;;;;;;;;;;;;11.59;100.00;99657.06;5022911;28;19922;-65
2023/03/24 02:15:03;;;;;;;;;;;;;;;11.53;100.00;99659.72;5022887;28;19920;-65
2023/03/24 02:17:28;;;;;;;;;;;;;;;11.50;100.00;99658.28;5028047;28;20658;-65
2023/03/24 02:20:18;;;;;;;;;;;;;;;11.47;100.00;99664.00;5028150;28;19920;-65
2023/03/24 02:22:58;;;;;;;;;;;;;;;11.42;100.00;99661.16;5026698;28;19917;-65
2023/03/24 02:25:47;;;;;;;;;;;;;;;11.40;100.00;99666.69;5023410;28;19932;-65
2023/03/24 02:28:31;;;;;;;;;;;;;;;11.39;100.00;99659.72;5023806;28;19914;-65
2023/03/24 02:31:15;;;;;;;;;;;;;;;11.37;100.00;99661.78;5026479;28;20089;-65
2023/03/24 02:33:46;;;;;;;;;;;;;;;11.37;100.00;99666.28;5027869;28;19948;-65
2023/03/24 02:36:27;;;;;;;;;;;;;;;11.38;100.00;99657.28;5024180;28;20409;-65
2023/03/24 02:39:11;;;;;;;;;;;;;;;11.41;100.00;99660.34;5029326;28;19933;-65
2023/03/24 02:41:57;;;;;;;;;;;;;;;11.47;100.00;99654.19;5026440;28;20283;-65
2023/03/24 02:44:34;;;;;;;;;;;;;;;11.51;100.00;99656.44;5025783;28;19917;-65
2023/03/24 02:47:11;;;;;;;;;;;;;;;11.54;100.00;99642.72;5022845;28;19917;-65
2023/03/24 02:49:55;;;;;;;;;;;;;;;11.57;100.00;99647.66;5028026;28;19921;-64
2023/03/24 02:52:20;;;;;;;;;;;;;;;11.58;100.00;99665.25;5027665;28;19928;-65
2023/03/24 02:54:49;;;;;;;;;;;;;;;11.60;100.00;99687.13;5029232;28;19917;-64
2023/03/24 02:57:20;;;;;;;;;;;;;;;11.55;100.00;99694.88;5024528;28;20008;-64
2023/03/24 02:59:55;;;;;;;;;;;;;;;11.49;100.00;99723.94;5024066;28;19925;-65
2023/03/24 03:02:26;;;;;;;;;;;;;;;11.42;100.00;99727.63;5018322;28;20004;-65
2023/03/24 03:04:56;;;;;;;;;;;;;;;11.31;100.00;99749.50;5027619;28;20413;-65
2023/03/24 03:07:24;;;;;;;;;;;;;;;11.11;100.00;99736.97;5024224;28;20364;-65
2023/03/24 03:10:04;;;;;;;;;;;;;;;10.81;100.00;99767.53;5024247;28;19916;-65
2023/03/24 03:12:32;;;;;;;;;;;;;;;10.53;100.00;99765.75;5022495;28;19929;-64
2023/03/24 03:15:01;;;;;;;;;;;;;;;10.43;100.00;99765.31;5026803;28;19917;-64
2023/03/24 03:17:30;;;;;;;;;;;;;;;10.39;100.00;99768.53;5028449;28;20429;-64
2023/03/24 03:19:57;;;;;;;;;;;;;;;10.41;99.24;99771.84;5026934;28;19970;-64
2023/03/24 03:22:24;;;;;;;;;;;;;;;10.44;97.61;99776.75;5028833;28;19918;-64
2023/03/24 03:24:52;;;;;;;;;;;;;;;10.45;96.17;99781.03;5018181;28;19920;-64
2023/03/24 03:27:30;;;;;;;;;;;;;;;10.42;95.57;99795.53;5021795;28;19917;-64
2023/03/24 03:29:59;;;;;;;;;;;;;;;10.36;95.34;99788.31;5023741;28;19960;-63
2023/03/24 03:32:27;;;;;;;;;;;;;;;10.35;94.67;99796.47;5024872;28;19932;-64
2023/03/24 03:35:01;;;;;;;;;;;;;;;10.27;94.33;99797.44;5028918;28;19955;-64
2023/03/24 03:37:31;;;;;;;;;;;;;;;10.28;94.40;99827.47;5020282;28;19921;-64
2023/03/24 03:39:58;;;;;;;;;;;;;;;10.22;94.21;99837.84;5026569;28;19917;-64
2023/03/24 03:42:23;;;;;;;;;;;;;;;10.16;94.35;99861.63;5023160;28;19939;-64
2023/03/24 03:44:49;;;;;;;;;;;;;;;10.15;93.88;99847.56;5023761;28;19914;-63
2023/03/24 03:47:15;;;;;;;;;;;;;;;10.14;93.62;99847.75;5023194;28;19941;-64
2023/03/24 03:49:40;;;;;;;;;;;;;;;10.08;93.71;99857.25;5022107;28;19918;-64
2023/03/24 03:52:05;;;;;;;;;;;;;;;10.05;94.09;99860.31;5019573;28;19932;-63
2023/03/24 03:54:31;;;;;;;;;;;;;;;10.00;93.92;99852.09;5032512;28;19919;-64
2023/03/24 03:56:58;;;;;;;;;;;;;;;9.98;93.72;99856.78;5004611;28;20556;-64
2023/03/24 03:59:23;;;;;;;;;;;;;;;9.93;93.76;99856.53;5022958;28;19916;-63
2023/03/24 04:01:48;;;;;;;;;;;;;;;9.85;93.72;99859.31;5027692;28;20272;-64
2023/03/24 04:04:25;;;;;;;;;;;;;;;9.80;93.86;99869.66;5027091;28;20497;-64
2023/03/24 04:07:09;;;;;;;;;;;;;;;9.77;94.35;99886.75;5022256;28;20072;-64
2023/03/24 04:09:39;;;;;;;;;;;;;;;9.73;94.39;99890.00;5027336;28;19917;-64
2023/03/24 04:12:14;;;;;;;;;;;;;;;9.66;94.07;99875.84;5023863;28;19928;-64
2023/03/24 04:14:39;;;;;;;;;;;;;;;9.67;94.69;99890.75;5019675;28;19984;-64
2023/03/24 04:17:23;;;;;;;;;;;;;;;9.68;94.38;99887.91;5025708;28;19952;-64
2023/03/24 04:20:01;;;;;;;;;;;;;;;9.74;94.39;99891.63;5026643;28;20299;-64
2023/03/24 04:22:45;;;;;;;;;;;;;;;9.78;94.28;99916.75;5028082;28;19951;-64
2023/03/24 04:25:14;;;;;;;;;;;;;;;9.79;93.38;99913.09;5019919;28;20016;-64
2023/03/24 04:27:59;;;;;;;;;;;;;;;9.89;92.20;99927.69;5027426;28;19924;-64
2023/03/24 04:30:38;;;;;;;;;;;;;;;9.88;91.98;99934.03;5023078;28;19917;-64
2023/03/24 04:33:08;;;;;;;;;;;;;;;9.93;91.63;99933.44;5018463;28;20321;-63
2023/03/24 04:35:41;;;;;;;;;;;;;;;9.94;91.33;99930.59;5026739;28;19919;-64
2023/03/24 04:38:09;;;;;;;;;;;;;;;9.89;90.70;99924.22;5020293;28;19913;-64
2023/03/24 04:40:35;;;;;;;;;;;;;;;9.89;90.01;99937.50;5018554;28;20358;-64
2023/03/24 04:43:06;;;;;;;;;;;;;;;9.94;89.09;99946.53;5020016;28;19967;-63
2023/03/24 04:45:32;;;;;;;;;;;;;;;9.89;89.13;99954.22;5024635;28;19913;-64
2023/03/24 04:47:58;;;;;;;;;;;;;;;9.71;88.60;99919.34;5026119;28;21084;-63
2023/03/24 04:50:42;;;;;;;;;;;;;;;9.75;88.87;99951.59;5023292;28;19920;-64
2023/03/24 04:53:08;;;;;;;;;;;;;;;9.68;88.59;99943.56;5027040;28;20028;-64
2023/03/24 04:55:36;;;;;;;;;;;;;;;9.65;88.49;99946.59;5027909;28;19992;-64
2023/03/24 04:58:01;;;;;;;;;;;;;;;9.62;88.74;99945.16;5032697;28;19913;-63
2023/03/24 05:00:27;;;;;;;;;;;;;;;9.48;89.19;99945.16;5028512;28;19924;-64
2023/03/24 05:02:52;;;;;;;;;;;;;;;9.43;88.92;99961.63;5023362;28;19921;-64
2023/03/24 05:05:17;;;;;;;;;;;;;;;9.43;88.96;99948.38;5029582;28;21219;-63
2023/03/24 05:07:42;;;;;;;;;;;;;;;9.39;88.98;99956.88;5024515;28;19913;-63
2023/03/24 05:10:08;;;;;;;;;;;;;;;9.32;89.48;99965.56;5028289;28;19932;-64
2023/03/24 05:12:33;;;;;;;;;;;;;;;9.34;89.46;99960.09;5022219;28;19917;-63
2023/03/24 05:14:58;;;;;;;;;;;;;;;9.33;89.13;99963.75;5026412;28;20008;-64
2023/03/24 05:17:23;;;;;;;;;;;;;;;9.24;89.26;99965.66;5027485;28;19917;-63
2023/03/24 05:19:49;;;;;;;;;;;;;;;9.21;89.46;99966.00;5027401;28;19925;-63
2023/03/24 05:22:14;;;;;;;;;;;;;;;9.19;89.66;99985.75;5027137;28;19926;-64
2023/03/24 05:24:39;;;;;;;;;;;;;;;9.17;89.86;99985.09;5025486;28;19918;-64
2023/03/24 05:27:04;;;;;;;;;;;;;;;9.21;90.28;99987.22;5030840;28;19920;-63
2023/03/24 05:29:30;;;;;;;;;;;;;;;9.26;90.18;99978.75;5022130;28;20442;-64
2023/03/24 05:31:55;;;;;;;;;;;;;;;9.34;89.89;99989.22;5026668;28;19928;-63
2023/03/24 05:34:21;;;;;;;;;;;;;;;9.39;90.08;100009.88;5025161;28;19917;-62
2023/03/24 05:36:46;;;;;;;;;;;;;;;9.42;89.37;100005.03;5029165;28;20546;-64
2023/03/24 05:39:11;;;;;;;;;;;;;;;9.45;89.64;100017.91;5023962;28;20249;-63
2023/03/24 05:41:36;;;;;;;;;;;;;;;9.51;89.02;100003.91;5021098;28;19913;-63
2023/03/24 05:44:01;;;;;;;;;;;;;;;9.52;88.78;100013.50;5026434;28;19936;-64
2023/03/24 05:46:27;;;;;;;;;;;;;;;9.56;88.79;100006.88;5030804;28;20003;-63
2023/03/24 05:48:52;;;;;;;;;;;;;;;9.53;88.93;99996.59;5025413;28;19932;-63
2023/03/24 05:51:17;;;;;;;;;;;;;;;9.49;89.23;99997.97;5022189;28;19917;-63
2023/03/24 05:53:42;;;;;;;;;;;;;;;9.48;89.32;100003.47;5011036;28;19917;-63
2023/03/24 05:56:10;;;;;;;;;;;;;;;9.44;89.10;100004.84;5021747;28;19917;-62
2023/03/24 05:58:38;;;;;;;;;;;;;;;9.43;89.33;100017.28;5026627;28;20369;-63
2023/03/24 06:01:10;;;;;;;;;;;;;;;9.40;88.97;100012.34;5028692;28;19924;-64
2023/03/24 06:03:37;;;;;;;;;;;;;;;9.39;89.17;100000.09;5016577;28;19917;-64
2023/03/24 06:06:03;;;;;;;;;;;;;;;9.38;89.08;100008.22;5027755;28;19920;-63
2023/03/24 06:08:32;;;;;;;;;;;;;;;9.35;89.27;100014.72;5029499;28;20362;-64
2023/03/24 06:10:59;;;;;;;;;;;;;;;9.36;88.86;100012.91;5014701;28;19917;-64
2023/03/24 06:13:24;;;;;;;;;;;;;;;9.38;88.98;100014.34;5023255;28;19974;-63
2023/03/24 06:15:53;;;;;;;;;;;;;;;9.41;89.08;100019.28;5029771;28;20356;-63
2023/03/24 06:18:20;;;;;;;;;;;;;;;9.44;88.82;100021.56;5022445;28;19925;-63
2023/03/24 06:20:49;;;;;;;;;;;;;;;9.43;88.79;100021.75;5025563;28;19956;-64
2023/03/24 06:23:15;;;;;;;;;;;;;;;9.45;89.00;100028.50;5020154;28;19917;-64
2023/03/24 06:25:43;;;;;;;;;;;;;;;9.48;88.42;100028.13;5022306;28;20310;-64
2023/03/24 06:28:09;;;;;;;;;;;;;;;9.51;88.35;100026.94;5020295;28;19913;-63
2023/03/24 06:30:35;;;;;;;;;;;;;;;9.53;88.01;100030.22;5021028;28;19945;-63
2023/03/24 06:33:01;;;;;;;;;;;;;;;9.53;88.37;100046.97;5025415;28;20016;-64
2023/03/24 06:35:26;;;;;;;;;;;;;;;9.54;87.76;100040.69;5030328;28;20036;-63
2023/03/24 06:37:51;;;;;;;;;;;;;;;9.55;87.83;100038.84;5019127;28;20379;-64
2023/03/24 06:40:16;;;;;;;;;;;;;;;9.56;87.53;100041.31;5026556;28;19921;-63
2023/03/24 06:42:42;;;;;;;;;;;;;;;9.58;87.55;100049.09;5013601;28;19925;-64
2023/03/24 06:45:07;;;;;;;;;;;;;;;9.63;87.60;100052.00;5024088;28;19924;-64
2023/03/24 06:47:33;;;;;;;;;;;;;;;9.65;87.85;100062.44;5023230;28;19936;-63
2023/03/24 06:49:58;;;;;;;;;;;;;;;9.67;87.88;100060.41;5028194;28;19967;-64
2023/03/24 06:52:23;;;;;;;;;;;;;;;9.70;87.72;100060.03;5018755;28;19917;-64
2023/03/24 06:54:48;;;;;;;;;;;;;;;9.73;87.48;100063.13;5017955;28;20008;-64
2023/03/24 06:57:14;;;;;;;;;;;;;;;9.78;87.15;100075.84;5024970;28;19976;-64
2023/03/24 06:59:39;;;;;;;;;;;;;;;9.80;87.03;100061.38;5016290;28;20326;-64
2023/03/24 07:02:04;;;;;;;;;;;;;;;9.85;87.01;100079.44;5014129;28;20000;-63
2023/03/24 07:04:35;;;;;;;;;;;;;;;9.85;87.07;100076.78;5025971;28;19959;-64
2023/03/24 07:07:00;;;;;;;;;;;;;;;9.85;86.82;100067.00;5027638;28;19960;-64
2023/03/24 07:09:26;;;;;;;;;;;;;;;9.88;86.75;100081.72;5027656;28;19960;-64
2023/03/24 07:11:51;;;;;;;;;;;;;;;9.94;86.46;100073.00;5018205;28;20048;-63
2023/03/24 07:14:16;;;;;;;;;;;;;;;9.97;86.64;100072.63;5020419;28;19921;-64
2023/03/24 07:16:41;;;;;;;;;;;;;;;10.00;86.52;100066.94;5024225;28;19921;-64
2023/03/24 07:19:06;;;;;;;;;;;;;;;10.06;86.66;100081.28;5028794;28;19917;-64
2023/03/24 07:21:31;;;;;;;;;;;;;;;10.05;86.94;100090.25;5025811;28;19917;-64
2023/03/24 07:23:57;;;;;;;;;;;;;;;10.08;86.82;100096.03;5028709;28;19935;-64
2023/03/24 07:26:22;;;;;;;;;;;;;;;10.11;87.06;100081.56;5011082;28;19914;-64
2023/03/24 07:28:47;;;;;;;;;;;;;;;10.13;86.88;100088.34;5026255;28;20050;-64
2023/03/24 07:31:12;;;;;;;;;;;;;;;10.19;86.95;100098.22;5015274;28;20003;-64
2023/03/24 07:33:38;;;;;;;;;;;;;;;10.21;86.55;100106.84;5022782;28;19927;-63
2023/03/24 07:36:04;;;;;;;;;;;;;;;10.23;85.81;100102.16;5017116;28;20330;-63
2023/03/24 07:38:29;;;;;;;;;;;;;;;10.31;85.99;100100.41;5024621;28;20577;-64
2023/03/24 07:40:56;;;;;;;;;;;;;;;10.35;86.11;100128.22;5027362;28;19950;-64
2023/03/24 07:43:22;;;;;;;;;;;;;;;10.40;86.15;100117.84;5022200;28;19925;-64
2023/03/24 07:45:47;;;;;;;;;;;;;;;10.50;86.17;100123.69;5027938;28;19917;-64
2023/03/24 07:48:12;;;;;;;;;;;;;;;10.57;85.83;100126.41;5023441;28;19920;-64
2023/03/24 07:50:37;;;;;;;;;;;;;;;10.56;85.64;100120.28;5023640;28;20374;-64
2023/03/24 07:53:02;;;;;;;;;;;;;;;10.61;85.05;100112.56;5023529;28;19917;-64
2023/03/24 07:55:27;;;;;;;;;;;;;;;10.67;84.29;100127.75;5019960;28;19920;-63
2023/03/24 07:57:53;;;;;;;;;;;;;;;10.70;84.38;100115.97;5012582;28;19921;-64
2023/03/24 08:00:23;;;;;;;;;;;;;;;10.70;84.52;100118.63;5022006;28;19917;-63
2023/03/24 08:02:50;;;;;;;;;;;;;;;10.66;83.79;100125.28;5023129;28;19924;-64
2023/03/24 08:05:18;;;;;;;;;;;;;;;10.69;83.74;100133.69;5027028;28;20337;-63
2023/03/24 08:07:44;;;;;;;;;;;;;;;10.73;83.64;100137.66;5028813;28;19913;-64
2023/03/24 08:10:10;;;;;;;;;;;;;;;10.72;83.72;100133.34;5027777;28;19920;-64
2023/03/24 08:12:35;;;;;;;;;;;;;;;10.79;83.18;100136.88;5023628;28;19948;-64
2023/03/24 08:15:00;;;;;;;;;;;;;;;10.91;83.62;100126.56;5023248;28;20601;-64
2023/03/24 08:17:26;;;;;;;;;;;;;;;10.98;83.35;100139.91;5021647;28;19921;-63
2023/03/24 08:19:51;;;;;;;;;;;;;;;11.03;82.64;100148.16;5020673;28;19917;-64
2023/03/24 08:22:16;;;;;;;;;;;;;;;11.06;82.95;100158.38;5021822;28;20398;-64
2023/03/24 08:24:41;;;;;;;;;;;;;;;11.12;82.89;100153.13;5024650;28;19920;-64
2023/03/24 08:27:07;;;;;;;;;;;;;;;11.10;82.20;100149.84;5026711;28;19944;-64
2023/03/24 08:29:36;;;;;;;;;;;;;;;11.11;82.37;100142.69;5027416;28;19912;-64
2023/03/24 08:32:01;;;;;;;;;;;;;;;11.15;82.49;100139.47;5027960;28;19921;-64
2023/03/24 08:34:27;;;;;;;;;;;;;;;11.22;82.59;100157.28;5017067;28;20353;-64
2023/03/24 08:36:52;;;;;;;;;;;;;;;11.23;82.47;100141.16;5024679;28;20012;-62
2023/03/24 08:39:17;;;;;;;;;;;;;;;11.19;82.21;100155.84;5022126;28;20314;-64
2023/03/24 08:41:44;;;;;;;;;;;;;;;11.13;81.78;100175.22;5027668;28;19913;-64
2023/03/24 08:44:10;;;;;;;;;;;;;;;11.10;81.66;100162.31;5027358;28;19944;-64
2023/03/24 08:46:35;;;;;;;;;;;;;;;11.12;81.99;100166.41;5021969;28;19924;-64
2023/03/24 08:49:01;;;;;;;;;;;;;;;11.22;82.47;100173.22;5019280;28;19917;-63
2023/03/24 08:51:26;;;;;;;;;;;;;;;11.28;81.53;100178.63;5019895;28;19925;-64
2023/03/24 08:53:52;;;;;;;;;;;;;;;11.26;81.56;100175.31;5015113;28;20008;-64
2023/03/24 08:56:18;;;;;;;;;;;;;;;11.20;80.56;100183.25;5015587;28;19944;-64
2023/03/24 08:58:43;;;;;;;;;;;;;;;11.08;80.63;100177.63;5019417;28;20379;-64
2023/03/24 09:01:09;;;;;;;;;;;;;;;11.03;81.30;100191.47;5026289;28;20038;-64
2023/03/24 09:03:34;;;;;;;;;;;;;;;10.88;81.99;100197.84;5021920;28;19941;-63
2023/03/24 09:06:00;;;;;;;;;;;;;;;10.49;83.71;100188.44;5017587;28;20016;-64
2023/03/24 09:08:25;;;;;;;;;;;;;;;10.41;83.56;100197.31;5023350;28;20076;-63
2023/03/24 09:10:50;;;;;;;;;;;;;;;10.54;84.24;100181.53;5020561;28;19923;-64
2023/03/24 09:13:16;;;;;;;;;;;;;;;10.75;83.74;100179.94;5024652;28;19921;-64
2023/03/24 09:15:46;;;;;;;;;;;;;;;10.90;83.02;100193.16;5018612;28;19913;-64
2023/03/24 09:18:11;;;;;;;;;;;;;;;11.00;82.88;100185.72;5022583;28;19920;-64
2023/03/24 09:20:36;;;;;;;;;;;;;;;11.10;81.70;100196.84;5020833;28;19917;-63
2023/03/24 09:23:01;;;;;;;;;;;;;;;11.15;81.93;100197.94;5020416;28;20112;-64
2023/03/24 09:25:26;;;;;;;;;;;;;;;11.25;81.13;100186.97;5027582;28;20004;-64
2023/03/24 09:27:52;;;;;;;;;;;;;;;11.35;80.86;100195.47;5011987;28;19948;-63
2023/03/24 09:30:17;;;;;;;;;;;;;;;11.36;79.97;100198.94;5027491;28;20386;-63
2023/03/24 09:32:43;;;;;;;;;;;;;;;11.31;79.72;100190.72;5025261;28;19924;-63
2023/03/24 09:35:08;;;;;;;;;;;;;;;11.29;80.04;100206.84;5009680;28;20425;-65
2023/03/24 09:37:35;;;;;;;;;;;;;;;11.26;79.51;100198.41;5026279;28;19939;-63
2023/03/24 09:40:01;;;;;;;;;;;;;;;11.21;79.15;100206.97;5018015;28;20279;-65
2023/03/24 09:42:29;;;;;;;;;;;;;;;11.22;79.86;100221.91;5027783;28;20003;-64
2023/03/24 09:44:55;;;;;;;;;;;;;;;11.14;80.43;100230.00;5026479;28;19925;-63
2023/03/24 09:47:25;;;;;;;;;;;;;;;11.11;80.63;100201.16;5030244;28;19927;-66
2023/03/24 09:49:51;;;;;;;;;;;;;;;11.32;80.37;100214.44;5024493;28;19917;-64
2023/03/24 09:52:20;;;;;;;;;;;;;;;11.51;80.53;100214.78;5017875;28;20475;-64
2023/03/24 09:54:57;;;;;;;;;;;;;;;11.70;80.90;100216.81;5023949;28;19967;-64
2023/03/24 09:57:40;;;;;;;;;;;;;;;11.91;80.16;100211.47;5020414;28;19937;-64
2023/03/24 10:00:24;;;;;;;;;;;;;;;11.99;79.99;100235.25;5020898;28;19963;-64
2023/03/24 10:02:50;;;;;;;;;;;;;;;11.84;79.51;100236.38;5027071;28;19925;-65
2023/03/24 10:05:17;;;;;;;;;;;;;;;11.78;80.07;100219.34;5025891;28;19914;-64
2023/03/24 10:07:46;;;;;;;;;;;;;;;11.74;80.34;100234.84;5028423;28;19914;-63
2023/03/24 10:10:32;;;;;;;;;;;;;;;11.62;79.69;100224.94;5015098;28;19961;-64
2023/03/24 10:13:03;;;;;;;;;;;;;;;11.18;81.56;100252.53;5023424;28;20016;-64
2023/03/24 10:15:31;;;;;;;;;;;;;;;11.03;82.02;100238.47;5025064;28;19917;-64
2023/03/24 10:18:05;;;;;;;;;;;;;;;11.00;83.24;100245.00;5021398;28;20283;-64
2023/03/24 10:20:48;;;;;;;;;;;;;;;11.08;83.47;100246.72;5027870;28;19917;-64
2023/03/24 10:23:16;;;;;;;;;;;;;;;11.06;82.99;100246.06;5016390;28;20401;-64
2023/03/24 10:25:50;;;;;;;;;;;;;;;10.99;83.85;100246.00;5022880;28;19924;-64
2023/03/24 10:28:36;;;;;;;;;;;;;;;10.99;84.60;100235.38;5017458;28;20370;-64
2023/03/24 10:31:04;;;;;;;;;;;;;;;11.10;84.63;100240.19;5022956;28;20382;-64
2023/03/24 10:33:30;;;;;;;;;;;;;;;11.16;84.98;100249.25;5029158;28;19921;-64
2023/03/24 10:36:01;;;;;;;;;;;;;;;11.22;84.82;100237.84;5021178;28;19917;-64
2023/03/24 10:38:26;;;;;;;;;;;;;;;11.31;84.82;100242.03;5023434;28;20378;-64
2023/03/24 10:40:53;;;;;;;;;;;;;;;11.33;85.26;100234.69;5012190;28;19928;-64
2023/03/24 10:43:18;;;;;;;;;;;;;;;11.35;85.33;100234.50;5020561;28;19921;-64
2023/03/24 10:45:46;;;;;;;;;;;;;;;11.33;85.00;100231.22;5024706;28;19917;-64
2023/03/24 10:48:13;;;;;;;;;;;;;;;11.37;85.25;100222.66;5023984;28;19913;-64
2023/03/24 10:50:41;;;;;;;;;;;;;;;11.40;84.22;100224.94;5024960;28;20473;-64
2023/03/24 10:53:07;;;;;;;;;;;;;;;11.50;81.24;100219.28;5022481;28;20545;-64
2023/03/24 10:55:42;;;;;;;;;;;;;;;11.68;80.02;100224.16;5027882;28;19921;-64
2023/03/24 10:58:16;;;;;;;;;;;;;;;11.70;78.25;100224.78;5021764;28;19924;-64
2023/03/24 11:00:42;;;;;;;;;;;;;;;11.65;76.80;100217.38;5025571;28;20035;-64
2023/03/24 11:03:12;;;;;;;;;;;;;;;11.73;76.39;100227.88;5028021;28;19917;-63
2023/03/24 11:05:39;;;;;;;;;;;;;;;11.71;75.90;100224.59;5026524;28;19921;-64
2023/03/24 11:08:16;;;;;;;;;;;;;;;11.83;75.74;100213.44;5025186;28;19953;-63
2023/03/24 11:10:42;;;;;;;;;;;;;;;12.13;74.71;100219.38;5019056;28;19920;-64
2023/03/24 11:13:16;;;;;;;;;;;;;;;12.37;73.74;100235.69;5026429;28;19925;-64
2023/03/24 11:15:51;;;;;;;;;;;;;;;12.45;73.18;100218.75;5028223;28;20382;-64
2023/03/24 11:18:17;;;;;;;;;;;;;;;12.67;74.20;100225.56;5024380;28;20333;-64
2023/03/24 11:20:43;;;;;;;;;;;;;;;12.59;72.74;100228.41;5025987;28;19913;-64
2023/03/24 11:23:11;;;;;;;;;;;;;;;12.39;71.51;100230.16;5026280;28;20384;-64
2023/03/24 11:25:38;;;;;;;;;;;;;;;12.24;70.96;100226.81;5025041;28;19940;-64
2023/03/24 11:28:08;;;;;;;;;;;;;;;12.10;70.60;100231.22;5020541;28;19913;-64
2023/03/24 11:30:34;;;;;;;;;;;;;;;11.65;72.50;100222.72;5022114;28;19999;-63
2023/03/24 11:33:01;;;;;;;;;;;;;;;11.08;75.89;100225.44;5017201;28;19921;-65
2023/03/24 11:35:26;;;;;;;;;;;;;;;10.79;77.59;100242.28;5020488;28;20315;-65
2023/03/24 11:37:52;;;;;;;;;;;;;;;10.61;79.25;100244.50;5023810;28;19919;-64
2023/03/24 11:40:24;;;;;;;;;;;;;;;10.49;80.38;100249.47;5025634;28;19967;-65
2023/03/24 11:42:52;;;;;;;;;;;;;;;10.45;81.67;100238.41;5020996;28;20393;-64
2023/03/24 11:45:27;;;;;;;;;;;;;;;10.53;82.51;100232.16;5023129;28;20003;-64
2023/03/24 11:47:56;;;;;;;;;;;;;;;10.67;83.73;100230.50;5016081;28;20394;-64
2023/03/24 11:50:26;;;;;;;;;;;;;;;10.82;83.48;100248.06;5028817;28;20274;-64
2023/03/24 11:52:54;;;;;;;;;;;;;;;10.95;83.39;100250.03;5028195;28;19921;-64
2023/03/24 11:55:31;;;;;;;;;;;;;;;11.06;84.50;100259.34;5027315;28;19971;-64
2023/03/24 11:58:13;;;;;;;;;;;;;;;11.13;84.98;100249.63;5025858;28;19975;-64
2023/03/24 12:00:41;;;;;;;;;;;;;;;11.24;85.17;100261.56;5009284;28;19921;-64
2023/03/24 12:03:06;;;;;;;;;;;;;;;11.30;85.03;100274.13;5016952;28;19940;-64
2023/03/24 12:05:39;;;;;;;;;;;;;;;11.22;84.85;100269.75;5021946;28;20403;-64
2023/03/24 12:08:13;;;;;;;;;;;;;;;11.16;85.64;100291.75;5021205;28;19932;-64
2023/03/24 12:10:38;;;;;;;;;;;;;;;11.17;84.09;100269.50;5028351;28;19922;-64
2023/03/24 12:13:03;;;;;;;;;;;;;;;11.37;83.96;100259.06;5017941;28;20381;-64
2023/03/24 12:15:47;;;;;;;;;;;;;;;11.62;82.91;100272.81;5013120;28;19918;-64
2023/03/24 12:18:33;;;;;;;;;;;;;;;11.74;80.07;100266.75;5020891;28;20000;-64
2023/03/24 12:21:17;;;;;;;;;;;;;;;11.77;79.98;100253.06;5020955;28;19939;-64
2023/03/24 12:23:50;;;;;;;;;;;;;;;11.79;79.72;100256.38;5023833;28;19917;-64
2023/03/24 12:26:18;;;;;;;;;;;;;;;11.81;79.65;100258.84;5018172;28;20799;-64
2023/03/24 12:28:53;;;;;;;;;;;;;;;11.81;79.66;100256.19;5023215;28;19924;-64
2023/03/24 12:31:40;;;;;;;;;;;;;;;11.76;78.94;100250.59;5019248;28;19917;-64
2023/03/24 12:34:11;;;;;;;;;;;;;;;11.84;79.24;100239.84;5020488;28;19944;-65
2023/03/24 12:36:40;;;;;;;;;;;;;;;12.00;79.10;100231.59;5023352;28;19917;-64
2023/03/24 12:39:05;;;;;;;;;;;;;;;12.20;78.12;100228.22;5016530;28;19914;-64
2023/03/24 12:41:39;;;;;;;;;;;;;;;12.35;76.88;100227.06;5020961;28;19924;-63
2023/03/24 12:44:23;;;;;;;;;;;;;;;12.46;75.91;100236.38;5025486;28;19944;-63
2023/03/24 12:46:48;;;;;;;;;;;;;;;12.53;75.11;100223.06;5024805;28;19917;-63
2023/03/24 12:49:35;;;;;;;;;;;;;;;12.65;75.63;100224.97;5026488;28;19913;-64